createdAt,value
2023-01-17T04:39:53.398Z,96105.09
2023-01-17T04:42:19.991Z,96095.16
2023-01-17T04:44:46.505Z,96101.09
2023-01-17T04:47:13.035Z,96106.31
2023-01-17T04:49:39.509Z,96099.44
2023-01-17T04:52:05.990Z,96117.91
2023-01-17T04:54:36.102Z,96120.84
2023-01-17T04:57:02.639Z,96130.63
2023-01-17T04:59:29.125Z,96130.59
2023-01-17T05:01:55.729Z,96118.84
2023-01-17T05:04:22.225Z,96133.09
2023-01-17T05:06:48.788Z,96131.31
2023-01-17T05:09:15.307Z,96135.88
2023-01-17T05:11:41.793Z,96128.44
2023-01-17T05:14:10.270Z,96128.38
2023-01-17T05:16:36.758Z,96120.34
2023-01-17T05:19:03.267Z,96123.94
2023-01-17T05:21:31.413Z,96127.25
2023-01-17T05:23:58.050Z,96138.44
2023-01-17T05:26:24.721Z,96120.97
2023-01-17T05:28:51.394Z,96122.78
2023-01-17T05:31:18.041Z,96130.38
2023-01-17T05:33:44.580Z,96127.66
2023-01-17T05:36:11.192Z,96133.19
2023-01-17T05:38:37.686Z,96139.13
2023-01-17T05:41:05.079Z,96142.16
2023-01-17T05:43:31.701Z,96145.34
2023-01-17T05:45:58.273Z,96149.63
2023-01-17T05:48:24.881Z,96169.75
2023-01-17T05:50:52.185Z,96150.44
2023-01-17T05:53:18.826Z,96165.78
2023-01-17T05:55:45.494Z,96164.38
2023-01-17T05:58:18.503Z,96169.50
2023-01-17T06:00:45.167Z,96173.34
2023-01-17T06:03:12.694Z,96166.19
2023-01-17T06:05:39.514Z,96155.81
2023-01-17T06:08:06.359Z,96189.91
2023-01-17T06:10:33.009Z,96197.09
2023-01-17T06:13:13.561Z,96188.84
2023-01-17T06:15:40.315Z,96201.09
2023-01-17T06:18:12.158Z,96184.13
2023-01-17T06:20:39.519Z,96172.41
2023-01-17T06:23:08.361Z,96162.75
2023-01-17T06:25:45.896Z,96140.63
2023-01-17T06:28:14.437Z,96157.88
2023-01-17T06:30:41.835Z,96147.38
2023-01-17T06:33:08.307Z,96152.97
2023-01-17T06:35:34.865Z,96137.78
2023-01-17T06:38:01.407Z,96136.44
2023-01-17T06:40:29.189Z,96141.91
2023-01-17T06:43:02.903Z,96135.00
2023-01-17T06:45:30.354Z,96141.34
2023-01-17T06:47:59.085Z,96146.34
2023-01-17T06:50:26.174Z,96140.94
2023-01-17T06:53:01.915Z,96147.72
2023-01-17T06:55:30.145Z,96155.94
2023-01-17T06:57:59.385Z,96156.22
2023-01-17T07:00:30.619Z,96145.31
2023-01-17T07:02:57.295Z,96152.50
2023-01-17T07:05:23.937Z,96159.50
2023-01-17T07:07:50.502Z,96165.56
2023-01-17T07:10:17.008Z,96178.56
2023-01-17T07:12:43.533Z,96177.19
2023-01-17T07:15:11.135Z,96168.34
2023-01-17T07:17:38.177Z,96179.91
2023-01-17T07:20:05.216Z,96180.59
2023-01-17T07:22:31.785Z,96188.03
2023-01-17T07:24:58.647Z,96179.16
2023-01-17T07:27:27.629Z,96174.75
2023-01-17T07:29:54.438Z,96186.38
2023-01-17T07:32:21.266Z,96187.22
2023-01-17T07:34:47.755Z,96179.34
2023-01-17T07:37:15.478Z,96184.72
2023-01-17T07:39:42.083Z,96175.59
2023-01-17T07:42:09.141Z,96167.88
2023-01-17T07:44:35.955Z,96174.41
2023-01-17T07:47:02.550Z,96177.81
2023-01-17T07:49:29.149Z,96166.75
2023-01-17T07:51:55.708Z,96162.59
2023-01-17T07:54:22.319Z,96171.28
2023-01-17T07:56:48.987Z,96189.28
2023-01-17T07:59:15.569Z,96203.06
2023-01-17T08:01:42.264Z,96226.06
2023-01-17T08:04:09.418Z,96217.34
2023-01-17T08:06:39.045Z,96231.72
2023-01-17T08:09:05.680Z,96185.44
2023-01-17T08:11:32.305Z,96069.50
2023-01-17T08:13:59.724Z,95782.63
2023-01-17T08:16:28.675Z,95556.75
2023-01-17T08:18:56.297Z,95550.41
2023-01-17T08:21:24.319Z,95615.47
2023-01-17T08:23:52.260Z,95565.34
2023-01-17T08:26:23.859Z,95536.59
2023-01-17T08:29:00.287Z,95656.94
2023-01-17T08:31:29.478Z,95853.81
2023-01-17T08:33:56.786Z,96056.84
2023-01-17T08:36:25.665Z,96061.03
2023-01-17T08:38:52.888Z,96062.50
2023-01-17T08:41:20.898Z,96102.69
2023-01-17T08:43:48.502Z,96171.22
2023-01-17T08:46:15.085Z,96192.44
2023-01-17T08:48:41.737Z,96219.28
2023-01-17T08:51:08.712Z,96242.88
2023-01-17T08:53:35.228Z,96219.00
2023-01-17T08:56:03.702Z,96198.88
2023-01-17T08:58:31.663Z,96199.06
2023-01-17T09:01:03.126Z,96208.97
2023-01-17T09:03:30.812Z,96205.69
2023-01-17T09:06:07.991Z,96260.69
2023-01-17T09:08:34.974Z,96270.31
2023-01-17T09:11:06.738Z,96260.69
2023-01-17T09:13:33.538Z,96275.53
2023-01-17T09:16:00.715Z,96280.63
2023-01-17T09:18:28.853Z,96264.16
2023-01-17T09:20:58.954Z,96267.59
2023-01-17T09:23:27.542Z,96268.97
2023-01-17T09:25:55.269Z,96277.41
2023-01-17T09:28:22.076Z,96262.59
2023-01-17T09:30:49.395Z,96221.69
2023-01-17T09:33:17.470Z,96167.97
2023-01-17T09:35:45.345Z,96026.72
2023-01-17T09:38:12.566Z,95997.53
2023-01-17T09:40:45.692Z,95705.31
2023-01-17T09:43:23.326Z,95561.25
2023-01-17T09:45:50.140Z,95549.38
2023-01-17T09:48:25.660Z,95573.78
2023-01-17T09:51:03.996Z,95578.72
2023-01-17T09:53:37.385Z,95530.84
2023-01-17T09:56:18.045Z,95570.91
2023-01-17T09:58:59.807Z,95667.78
2023-01-17T10:01:38.588Z,95757.91
2023-01-17T10:04:41.461Z,95558.66
2023-01-17T10:07:17.787Z,95580.53
2023-01-17T10:10:12.120Z,95742.66
2023-01-17T10:13:00.050Z,95755.81
2023-01-17T10:15:32.342Z,95761.06
2023-01-17T10:18:29.571Z,95858.44
2023-01-17T10:21:08.972Z,95922.28
2023-01-17T10:23:55.716Z,95924.91
2023-01-17T10:26:25.211Z,95855.38
2023-01-17T10:28:54.615Z,95838.44
2023-01-17T10:31:31.903Z,95788.75
2023-01-17T10:34:14.949Z,95774.72
2023-01-17T10:36:45.489Z,95799.28
2023-01-17T10:39:23.884Z,95746.66
2023-01-17T10:42:07.136Z,95725.19
2023-01-17T10:44:43.364Z,95691.38
2023-01-17T10:47:09.863Z,95632.25
2023-01-17T10:49:49.032Z,95656.03
2023-01-17T10:52:33.532Z,95699.22
2023-01-17T10:55:39.897Z,95693.28
2023-01-17T10:58:12.352Z,95753.84
2023-01-17T11:00:47.999Z,95681.50
2023-01-17T11:03:20.850Z,95693.59
2023-01-17T11:06:16.696Z,95783.06
2023-01-17T11:08:53.561Z,95707.28
2023-01-17T11:11:23.298Z,95748.16
2023-01-17T11:13:52.082Z,95746.91
2023-01-17T11:16:21.778Z,95714.66
2023-01-17T11:19:04.790Z,95657.53
2023-01-17T11:21:32.883Z,95633.19
2023-01-17T11:24:10.146Z,95563.44
2023-01-17T11:26:38.419Z,95565.41
2023-01-17T11:29:29.585Z,95591.63
2023-01-17T11:31:56.299Z,95514.41
2023-01-17T11:34:25.716Z,95485.78
2023-01-17T11:37:30.900Z,95461.88
2023-01-17T11:40:21.771Z,95454.59
2023-01-17T11:43:24.916Z,95456.25
2023-01-17T11:46:14.095Z,95465.34
2023-01-17T11:48:40.727Z,95453.31
2023-01-17T11:51:24.408Z,95441.94
2023-01-17T11:53:52.828Z,95444.59
2023-01-17T11:56:31.007Z,95439.69
2023-01-17T11:59:12.336Z,95449.88
2023-01-17T12:02:03.316Z,95440.84
2023-01-17T12:04:40.971Z,95436.22
2023-01-17T12:07:24.496Z,95438.75
2023-01-17T12:09:58.989Z,95454.34
2023-01-17T12:12:50.375Z,95457.41
2023-01-17T12:15:54.807Z,95449.50
2023-01-17T12:18:45.576Z,95442.06
2023-01-17T12:21:17.579Z,95446.41
2023-01-17T12:24:02.494Z,95660.25
2023-01-17T12:26:45.138Z,95763.53
2023-01-17T12:29:42.019Z,95696.81
2023-01-17T12:32:17.750Z,95727.34
2023-01-17T12:34:52.449Z,95682.38
2023-01-17T12:37:26.592Z,95553.31
2023-01-17T12:40:13.715Z,95358.19
2023-01-17T12:42:48.745Z,95224.00
2023-01-17T12:45:24.367Z,95193.66
2023-01-17T12:48:01.307Z,95180.31
2023-01-17T12:50:50.841Z,95186.03
2023-01-17T12:53:37.802Z,95435.78
2023-01-17T12:56:16.400Z,95668.81
2023-01-17T12:58:48.881Z,95682.69
2023-01-17T13:01:39.835Z,95684.66
2023-01-17T13:04:29.446Z,95690.28
2023-01-17T13:07:08.011Z,95685.38
2023-01-17T13:09:42.676Z,95675.06
2023-01-17T13:12:21.229Z,95645.69
2023-01-17T13:14:48.198Z,95596.44
2023-01-17T13:17:26.556Z,95542.44
2023-01-17T13:20:14.734Z,95509.75
2023-01-17T13:22:43.161Z,95483.88
2023-01-17T13:25:25.259Z,95539.00
2023-01-17T13:28:12.021Z,95593.78
2023-01-17T13:31:05.708Z,95547.97
2023-01-17T13:33:46.604Z,95512.72
2023-01-17T13:36:34.184Z,95489.19
2023-01-17T13:39:16.943Z,95473.81
2023-01-17T13:41:56.513Z,95477.53
2023-01-17T13:44:27.597Z,95518.78
2023-01-17T13:47:27.069Z,95510.72
2023-01-17T13:49:56.508Z,95458.72
2023-01-17T13:52:25.951Z,95437.94
2023-01-17T13:55:01.369Z,95393.00
2023-01-17T13:57:32.745Z,95398.44
2023-01-17T14:00:22.974Z,95364.50
2023-01-17T14:02:55.325Z,95353.56
2023-01-17T14:05:30.918Z,95316.22
2023-01-17T14:08:01.677Z,95293.69
2023-01-17T14:10:40.794Z,95288.63
2023-01-17T14:13:25.526Z,95288.50
2023-01-17T14:15:52.338Z,95290.97
2023-01-17T14:18:40.765Z,95291.34
2023-01-17T14:21:21.490Z,95286.13
2023-01-17T14:24:06.280Z,95280.75
2023-01-17T14:26:52.125Z,95280.69
2023-01-17T14:29:45.130Z,95285.50
2023-01-17T14:32:14.695Z,95284.09
2023-01-17T14:34:44.381Z,95258.66
2023-01-17T14:37:24.107Z,95265.53
2023-01-17T14:39:51.167Z,95261.00
2023-01-17T14:42:21.533Z,95257.59
2023-01-17T14:44:50.766Z,95245.31
2023-01-17T14:47:17.733Z,95243.50
2023-01-17T14:49:44.433Z,95245.88
2023-01-17T14:52:16.214Z,95244.97
2023-01-17T14:54:51.283Z,95243.50
2023-01-17T14:57:27.254Z,95252.78
2023-01-17T15:00:19.017Z,95255.31
2023-01-17T15:02:47.974Z,95283.59
2023-01-17T15:05:17.217Z,95318.47
2023-01-17T15:07:46.354Z,95319.69
2023-01-17T15:10:15.862Z,95333.03
2023-01-17T15:12:46.544Z,95339.69
2023-01-17T15:15:32.126Z,95366.66
2023-01-17T15:18:13.915Z,95397.88
2023-01-17T15:21:06.308Z,95407.09
2023-01-17T15:23:39.011Z,95418.91
2023-01-17T15:26:07.997Z,95465.56
2023-01-17T15:28:35.355Z,95501.34
2023-01-17T15:31:01.904Z,95528.63
2023-01-17T15:33:31.443Z,95544.03
2023-01-17T15:36:11.293Z,95568.13
2023-01-17T15:38:47.756Z,95599.84
2023-01-17T15:41:16.854Z,95621.88
2023-01-17T15:43:45.056Z,95604.91
2023-01-17T15:46:31.882Z,95623.13
2023-01-17T15:49:17.661Z,95643.25
2023-01-17T15:51:47.437Z,95662.59
2023-01-17T15:54:35.754Z,95680.09
2023-01-17T15:57:24.060Z,95670.06
2023-01-17T16:00:07.706Z,95648.19
2023-01-17T16:02:43.345Z,95647.53
2023-01-17T16:05:22.802Z,95636.13
2023-01-17T16:07:56.020Z,95671.00
2023-01-17T16:10:25.723Z,95678.38
2023-01-17T16:12:55.052Z,95680.34
2023-01-17T16:15:25.512Z,95675.09
2023-01-17T16:18:04.494Z,95667.53
2023-01-17T16:20:39.312Z,95705.25
2023-01-17T16:23:05.850Z,95722.25
2023-01-17T16:25:32.906Z,95711.84
2023-01-17T16:28:00.554Z,95711.66
2023-01-17T16:30:27.981Z,95741.25
2023-01-17T16:32:56.513Z,95784.81
2023-01-17T16:35:29.975Z,95793.66
2023-01-17T16:38:04.120Z,95796.28
2023-01-17T16:40:43.881Z,95820.22
2023-01-17T16:43:12.165Z,95838.66
2023-01-17T16:45:45.133Z,95827.53
2023-01-17T16:48:12.552Z,95804.28
2023-01-17T16:50:48.059Z,95809.72
2023-01-17T16:53:15.609Z,95820.06
2023-01-17T16:55:43.295Z,95844.28
2023-01-17T16:58:10.202Z,95831.59
2023-01-17T17:00:37.417Z,95822.91
2023-01-17T17:03:04.615Z,95813.31
2023-01-17T17:05:33.634Z,95816.00
2023-01-17T17:08:01.139Z,95762.94
2023-01-17T17:10:28.126Z,95768.59
2023-01-17T17:12:55.441Z,95925.94
2023-01-17T17:15:25.451Z,95942.53
2023-01-17T17:17:54.486Z,95930.09
2023-01-17T17:20:21.048Z,95915.53
2023-01-17T17:22:51.962Z,95923.53
2023-01-17T17:25:19.061Z,95900.13
2023-01-17T17:27:45.703Z,95892.94
2023-01-17T17:30:12.805Z,95896.66
2023-01-17T17:32:39.318Z,95903.84
2023-01-17T17:35:06.174Z,95921.72
2023-01-17T17:37:32.750Z,95939.59
2023-01-17T17:39:59.322Z,95959.34
2023-01-17T17:42:26.318Z,95974.03
2023-01-17T17:44:52.940Z,95955.28
2023-01-17T17:47:19.435Z,95952.16
2023-01-17T17:49:46.069Z,95936.34
2023-01-17T17:52:13.021Z,95963.09
2023-01-17T17:54:39.625Z,95975.66
2023-01-17T17:57:06.570Z,96005.03
2023-01-17T17:59:33.538Z,96011.41
2023-01-17T18:02:00.261Z,96017.59
2023-01-17T18:04:45.547Z,96021.03
2023-01-17T18:07:32.338Z,96001.03
2023-01-17T18:10:19.281Z,95995.38
2023-01-17T18:13:06.144Z,96007.41
2023-01-17T18:16:14.443Z,96006.13
2023-01-17T18:19:03.224Z,96014.16
2023-01-17T18:21:51.392Z,96002.69
2023-01-17T18:24:38.354Z,95991.53
2023-01-17T18:27:25.238Z,95994.16
2023-01-17T18:30:15.309Z,96013.59
2023-01-17T18:33:02.251Z,96004.38
2023-01-17T18:35:57.497Z,96020.50
2023-01-17T18:38:47.407Z,96029.19
2023-01-17T18:41:34.597Z,96021.63
2023-01-17T18:44:22.651Z,96020.63
2023-01-17T18:47:10.879Z,96008.75
2023-01-17T18:49:57.767Z,96032.50
2023-01-17T18:52:44.701Z,96024.63
2023-01-17T18:55:32.270Z,96035.25
2023-01-17T18:58:19.221Z,96030.69
2023-01-17T19:01:15.420Z,96031.09
2023-01-17T19:04:04.334Z,96036.06
2023-01-17T19:06:55.525Z,96022.56
2023-01-17T19:09:44.093Z,96025.31
2023-01-17T19:12:31.046Z,96030.56
2023-01-17T19:15:17.916Z,96039.38
2023-01-17T19:18:05.587Z,96046.56
2023-01-17T19:20:52.607Z,96053.19
2023-01-17T19:23:39.558Z,96031.94
2023-01-17T19:26:27.755Z,96052.50
2023-01-17T19:29:14.633Z,96052.91
2023-01-17T19:32:01.771Z,96050.53
2023-01-17T19:34:48.685Z,96050.97
2023-01-17T19:37:35.651Z,96062.41
2023-01-17T19:40:22.591Z,96058.41
2023-01-17T19:43:09.739Z,96052.06
2023-01-17T19:46:00.801Z,96063.66
2023-01-17T19:48:48.540Z,96060.34
2023-01-17T19:51:36.442Z,96060.47
2023-01-17T19:54:23.439Z,96059.25
2023-01-17T19:57:10.297Z,96043.22
2023-01-17T19:59:57.159Z,96053.44
2023-01-17T20:02:44.193Z,96067.94
2023-01-17T20:05:33.564Z,96061.06
2023-01-17T20:08:20.400Z,96051.53
2023-01-17T20:11:10.685Z,96064.63
2023-01-17T20:13:58.876Z,96057.72
2023-01-17T20:16:47.495Z,96057.31
2023-01-17T20:19:34.498Z,96022.69
2023-01-17T20:22:21.498Z,96066.41
2023-01-17T20:25:09.526Z,96069.88
2023-01-17T20:27:56.728Z,96071.25
2023-01-17T20:30:43.663Z,96079.38
